< < Back
Terminal Aerodrome Forecast


Current Version              Previous Versions:   1  2  3  4  5  6  7  8  9  

Terminal Aerodrome Forecast

996
FTUS42 KTAE 202300
TAFDHN
TAF
KDHN 202336Z 2100/2124 31005KT P6SM SCT250=



Latest METAR

044
SAUS70 KWBC 211700 RRB
MTRDHN
METAR KDHN 211653Z 35007KT 10SM CLR 24/12 A3006 RMK AO2 SLP174
T02440117


USA.gov is the U.S. government's official web portal to all federal, state and local government web resources and services.